createdAt,value
2023-06-11T00:00:48.083Z,21.54
2023-06-11T00:03:14.881Z,21.48
2023-06-11T00:05:42.238Z,21.43
2023-06-11T00:08:11.339Z,21.37
2023-06-11T00:10:38.170Z,21.31
2023-06-11T00:13:04.899Z,21.32
2023-06-11T00:15:31.679Z,21.32
2023-06-11T00:17:58.250Z,21.33
2023-06-11T00:20:28.120Z,21.30
2023-06-11T00:22:55.352Z,21.32
2023-06-11T00:25:22.674Z,21.23
2023-06-11T00:27:51.444Z,21.20
2023-06-11T00:30:21.300Z,21.17
2023-06-11T00:32:47.916Z,21.14
2023-06-11T00:35:20.233Z,21.08
2023-06-11T00:37:48.401Z,21.01
2023-06-11T00:40:14.967Z,20.97
2023-06-11T00:42:42.137Z,20.96
2023-06-11T00:45:10.098Z,20.94
2023-06-11T00:47:38.138Z,20.90
2023-06-11T00:50:06.168Z,20.86
2023-06-11T00:52:34.833Z,20.87
2023-06-11T00:55:01.443Z,20.86
2023-06-11T00:57:28.600Z,20.82
2023-06-11T00:59:57.157Z,20.77
2023-06-11T01:02:44.816Z,20.82
2023-06-11T01:05:13.614Z,20.79
2023-06-11T01:07:51.744Z,20.81
2023-06-11T01:10:19.930Z,20.77
2023-06-11T01:12:47.240Z,20.77
2023-06-11T01:15:15.817Z,20.72
2023-06-11T01:17:58.340Z,20.57
2023-06-11T01:20:37.645Z,20.51
2023-06-11T01:23:28.583Z,20.43
2023-06-11T01:26:16.927Z,20.41
2023-06-11T01:28:48.021Z,20.37
2023-06-11T01:31:16.662Z,20.30
2023-06-11T01:33:44.491Z,20.29
2023-06-11T01:36:12.159Z,20.26
2023-06-11T01:38:46.336Z,20.32
2023-06-11T01:41:13.872Z,20.30
2023-06-11T01:43:41.230Z,20.31
2023-06-11T01:46:07.950Z,20.35
2023-06-11T01:48:34.834Z,20.34
2023-06-11T01:51:01.549Z,20.30
2023-06-11T01:53:28.280Z,20.27
2023-06-11T01:55:58.190Z,20.22
2023-06-11T01:58:25.512Z,20.13
2023-06-11T02:00:52.203Z,20.11
2023-06-11T02:03:19.664Z,20.12
2023-06-11T02:05:46.421Z,20.16
2023-06-11T02:08:13.554Z,20.11
2023-06-11T02:10:40.364Z,20.08
2023-06-11T02:13:12.602Z,20.08
2023-06-11T02:15:39.530Z,20.02
2023-06-11T02:18:07.005Z,20.08
2023-06-11T02:20:34.948Z,20.09
2023-06-11T02:23:03.403Z,20.10
2023-06-11T02:25:30.052Z,20.05
2023-06-11T02:27:56.840Z,20.03
2023-06-11T02:30:23.368Z,19.88
2023-06-11T02:32:50.120Z,19.85
2023-06-11T02:35:16.811Z,19.82
2023-06-11T02:37:43.921Z,19.85
2023-06-11T02:40:11.344Z,19.75
2023-06-11T02:42:37.898Z,19.68
2023-06-11T02:45:04.998Z,19.63
2023-06-11T02:47:31.666Z,19.53
2023-06-11T02:49:58.542Z,19.41
2023-06-11T02:52:25.220Z,19.36
2023-06-11T02:54:52.048Z,19.36
2023-06-11T02:57:18.891Z,19.34
2023-06-11T02:59:45.563Z,19.23
2023-06-11T03:02:12.223Z,19.21
2023-06-11T03:04:38.754Z,19.10
2023-06-11T03:07:05.753Z,19.05
2023-06-11T03:09:32.426Z,19.03
2023-06-11T03:11:59.025Z,19.03
2023-06-11T03:14:27.479Z,19.10
2023-06-11T03:16:54.128Z,19.15
2023-06-11T03:19:21.175Z,19.19
2023-06-11T03:21:47.823Z,19.15
2023-06-11T03:24:14.496Z,19.19
2023-06-11T03:26:42.917Z,19.18
2023-06-11T03:29:09.603Z,19.22
2023-06-11T03:31:36.398Z,19.26
2023-06-11T03:34:04.549Z,19.27
2023-06-11T03:36:31.091Z,19.29
2023-06-11T03:38:57.714Z,19.28
2023-06-11T03:41:24.293Z,19.21
2023-06-11T03:43:50.879Z,19.11
2023-06-11T03:46:18.410Z,19.10
2023-06-11T03:48:45.001Z,19.08
2023-06-11T03:51:12.147Z,19.11
2023-06-11T03:53:38.778Z,19.14
2023-06-11T03:56:05.815Z,19.16
2023-06-11T03:58:32.582Z,19.16
2023-06-11T04:00:59.935Z,19.14
2023-06-11T04:03:27.769Z,19.19
2023-06-11T04:05:55.166Z,19.21
2023-06-11T04:08:23.731Z,19.25
2023-06-11T04:10:50.434Z,19.26
2023-06-11T04:13:17.172Z,19.30
2023-06-11T04:15:43.738Z,19.35
2023-06-11T04:18:12.925Z,19.38
2023-06-11T04:20:39.587Z,19.42
2023-06-11T04:23:07.790Z,19.42
2023-06-11T04:25:34.996Z,19.43
2023-06-11T04:28:03.519Z,19.51
2023-06-11T04:30:30.068Z,19.53
2023-06-11T04:32:56.886Z,19.57
2023-06-11T04:35:24.841Z,19.62
2023-06-11T04:37:51.495Z,19.71
2023-06-11T04:40:20.581Z,19.73
2023-06-11T04:42:47.595Z,19.77
2023-06-11T04:45:14.584Z,19.76
2023-06-11T04:47:42.052Z,19.81
2023-06-11T04:50:09.271Z,19.87
2023-06-11T04:52:36.932Z,19.94
2023-06-11T04:55:05.883Z,20.08
2023-06-11T04:57:35.833Z,20.18
2023-06-11T05:00:04.240Z,20.32
2023-06-11T05:02:31.057Z,20.44
2023-06-11T05:04:58.874Z,20.51
2023-06-11T05:07:26.119Z,20.59
2023-06-11T05:09:52.707Z,20.72
2023-06-11T05:12:19.179Z,20.75
2023-06-11T05:14:45.840Z,20.83
2023-06-11T05:17:12.718Z,20.86
2023-06-11T05:19:40.990Z,21.00
2023-06-11T05:22:08.696Z,21.10
2023-06-11T05:24:35.331Z,21.11
2023-06-11T05:27:02.009Z,21.17
2023-06-11T05:29:29.033Z,21.19
2023-06-11T05:31:57.652Z,21.21
2023-06-11T05:34:27.370Z,21.36
2023-06-11T05:36:54.090Z,21.52
2023-06-11T05:39:21.684Z,21.68
2023-06-11T05:41:48.516Z,21.79
2023-06-11T05:44:16.760Z,21.86
2023-06-11T05:46:43.474Z,21.92
2023-06-11T05:49:10.418Z,21.94
2023-06-11T05:51:36.940Z,22.00
2023-06-11T05:54:04.275Z,22.09
2023-06-11T05:56:31.622Z,22.22
2023-06-11T05:58:58.352Z,22.30
2023-06-11T06:01:32.286Z,22.31
2023-06-11T06:03:58.938Z,22.32
2023-06-11T06:06:27.000Z,22.34
2023-06-11T06:08:53.825Z,22.34
2023-06-11T06:11:20.339Z,22.48
2023-06-11T06:13:46.886Z,22.54
2023-06-11T06:16:13.641Z,22.65
2023-06-11T06:18:41.403Z,22.77
2023-06-11T06:21:07.985Z,22.88
2023-06-11T06:23:34.612Z,23.06
2023-06-11T06:26:05.862Z,23.17
2023-06-11T06:28:36.979Z,23.18
2023-06-11T06:31:03.951Z,23.12
2023-06-11T06:33:35.307Z,23.22
2023-06-11T06:36:04.320Z,23.37
2023-06-11T06:38:33.923Z,23.45
2023-06-11T06:41:00.980Z,23.54
2023-06-11T06:43:30.176Z,23.58
2023-06-11T06:45:57.220Z,23.64
2023-06-11T06:48:24.738Z,23.83
2023-06-11T06:50:51.515Z,23.80
2023-06-11T06:53:18.311Z,23.76
2023-06-11T07:01:09.630Z,24.15
2023-06-11T07:03:39.672Z,24.19
2023-06-11T07:36:05.176Z,25.18
2023-06-11T07:38:43.909Z,25.31
2023-06-11T07:41:12.669Z,25.37
2023-06-11T07:46:26.119Z,25.50
2023-06-11T07:48:52.915Z,25.54
2023-06-11T07:51:21.827Z,25.48
2023-06-11T07:53:48.369Z,25.57
2023-06-11T07:56:14.977Z,25.60
2023-06-11T07:58:45.101Z,25.62
2023-06-11T08:01:11.690Z,25.72
2023-06-11T08:03:38.763Z,25.87
2023-06-11T08:06:05.461Z,26.03
2023-06-11T08:08:32.022Z,26.18
2023-06-11T08:10:59.340Z,26.29
2023-06-11T08:13:26.372Z,26.33
2023-06-11T08:15:53.267Z,26.31
2023-06-11T08:18:20.332Z,26.36
2023-06-11T08:20:47.573Z,26.51
2023-06-11T08:23:14.404Z,26.62
2023-06-11T08:25:41.072Z,26.69
2023-06-11T08:28:08.027Z,26.71
2023-06-11T08:30:35.908Z,26.71
2023-06-11T08:33:02.936Z,26.84
2023-06-11T08:35:29.585Z,26.98
2023-06-11T08:37:56.289Z,27.15
2023-06-11T08:43:06.628Z,27.25
2023-06-11T08:45:43.095Z,27.26
2023-06-11T08:48:10.682Z,27.13
2023-06-11T08:50:40.891Z,27.18
2023-06-11T08:53:16.751Z,27.23
2023-06-11T08:58:50.276Z,27.45
2023-06-11T09:01:17.715Z,27.32
2023-06-11T09:03:44.902Z,27.49
2023-06-11T09:06:12.048Z,27.79
2023-06-11T09:08:41.812Z,27.94
2023-06-11T09:11:13.403Z,28.01
2023-06-11T09:13:41.430Z,27.91
2023-06-11T09:16:07.908Z,27.70
2023-06-11T09:18:34.453Z,27.64
2023-06-11T09:21:01.899Z,27.84
2023-06-11T09:23:33.046Z,27.82
2023-06-11T09:26:01.407Z,27.92
2023-06-11T09:28:33.046Z,28.06
2023-06-11T09:31:02.020Z,28.14
2023-06-11T09:33:29.991Z,28.22
2023-06-11T09:35:56.480Z,28.38
2023-06-11T09:38:23.003Z,28.46
2023-06-11T09:40:55.150Z,28.49
2023-06-11T09:43:25.719Z,28.54
2023-06-11T09:45:54.396Z,28.67
2023-06-11T09:48:22.121Z,28.64
2023-06-11T09:50:52.724Z,28.64
2023-06-11T09:53:20.714Z,28.66
2023-06-11T09:56:05.247Z,28.64
2023-06-11T09:58:39.693Z,28.70
2023-06-11T10:01:08.286Z,28.85
2023-06-11T10:03:35.033Z,28.85
2023-06-11T10:06:11.017Z,28.79
2023-06-11T10:08:37.726Z,28.82
2023-06-11T10:11:05.247Z,28.91
2023-06-11T10:13:36.209Z,28.78
2023-06-11T10:16:04.293Z,28.89
2023-06-11T10:18:31.719Z,29.00
2023-06-11T10:21:02.851Z,29.10
2023-06-11T10:23:37.613Z,29.35
2023-06-11T10:26:04.848Z,29.46
2023-06-11T10:28:52.457Z,29.32
2023-06-11T10:31:40.761Z,29.24
2023-06-11T10:34:07.614Z,29.29
2023-06-11T10:36:36.943Z,29.20
2023-06-11T10:39:13.484Z,29.12
2023-06-11T10:41:41.026Z,29.22
2023-06-11T10:44:08.509Z,29.33
2023-06-11T10:46:50.601Z,29.35
2023-06-11T10:49:18.233Z,29.27
2023-06-11T10:51:47.355Z,29.40
2023-06-11T10:54:24.241Z,29.31
2023-06-11T10:56:51.561Z,29.34
2023-06-11T10:59:19.141Z,29.19
2023-06-11T11:01:45.985Z,29.27
2023-06-11T11:04:12.675Z,29.35
2023-06-11T11:06:40.651Z,29.36
2023-06-11T11:09:07.074Z,29.69
2023-06-11T11:11:34.337Z,29.92
2023-06-11T11:14:02.044Z,29.88
2023-06-11T11:16:29.244Z,29.86
2023-06-11T11:18:55.823Z,29.93
2023-06-11T11:21:29.725Z,30.03
2023-06-11T11:23:56.720Z,30.11
2023-06-11T11:26:23.272Z,29.97
2023-06-11T11:28:50.188Z,29.99
2023-06-11T11:31:19.766Z,29.95
2023-06-11T11:33:46.669Z,30.01
2023-06-11T11:36:13.607Z,29.95
2023-06-11T11:38:40.465Z,30.14
2023-06-11T11:41:10.758Z,30.33
2023-06-11T11:43:41.924Z,30.10
2023-06-11T11:46:16.668Z,30.04
2023-06-11T11:48:43.576Z,30.25
2023-06-11T11:51:12.764Z,30.11
2023-06-11T11:53:40.559Z,30.28
2023-06-11T11:56:09.053Z,30.64
2023-06-11T11:58:38.448Z,30.68
2023-06-11T12:01:09.652Z,30.69
2023-06-11T12:03:37.421Z,30.73
2023-06-11T12:06:07.064Z,30.73
2023-06-11T12:08:34.871Z,30.43
2023-06-11T12:11:02.910Z,30.48
2023-06-11T12:13:29.429Z,30.51
2023-06-11T12:15:56.315Z,30.43
2023-06-11T12:18:23.050Z,30.55
2023-06-11T12:20:49.973Z,30.76
2023-06-11T12:23:16.551Z,30.75
2023-06-11T12:25:46.437Z,30.75
2023-06-11T12:28:12.980Z,31.03
2023-06-11T12:30:39.414Z,31.11
2023-06-11T12:33:05.966Z,30.89
2023-06-11T12:35:32.617Z,30.85
2023-06-11T12:38:01.142Z,30.74
2023-06-11T12:40:29.298Z,30.84
2023-06-11T12:43:00.053Z,30.82
2023-06-11T12:45:28.296Z,30.98
2023-06-11T12:47:56.112Z,31.12
2023-06-11T12:50:26.453Z,30.96
2023-06-11T12:52:56.339Z,30.91
2023-06-11T12:55:23.265Z,30.94
2023-06-11T12:57:49.835Z,31.04
2023-06-11T13:00:17.005Z,31.24
2023-06-11T13:02:43.788Z,31.21
2023-06-11T13:05:10.443Z,31.24
2023-06-11T13:07:36.951Z,31.10
2023-06-11T13:10:04.768Z,30.96
2023-06-11T13:12:32.029Z,30.44
2023-06-11T13:14:58.598Z,30.18
2023-06-11T13:17:25.291Z,30.49
2023-06-11T13:19:55.597Z,30.91
2023-06-11T13:22:22.880Z,31.14
2023-06-11T13:24:51.177Z,31.22
2023-06-11T13:27:18.081Z,31.28
2023-06-11T13:29:44.679Z,31.36
2023-06-11T13:32:11.409Z,31.56
2023-06-11T13:34:38.387Z,31.67
2023-06-11T13:37:05.217Z,31.68
2023-06-11T13:39:32.666Z,31.65
2023-06-11T13:41:59.266Z,31.51
2023-06-11T13:44:25.855Z,31.48
2023-06-11T13:46:52.929Z,31.44
2023-06-11T13:49:19.456Z,31.38
2023-06-11T13:51:45.905Z,31.41
2023-06-11T13:54:12.323Z,31.48
2023-06-11T13:56:39.882Z,31.53
2023-06-11T13:59:06.337Z,31.62
2023-06-11T14:01:32.993Z,31.76
2023-06-11T14:03:59.600Z,31.69
2023-06-11T14:06:26.152Z,31.52
2023-06-11T14:08:52.641Z,31.50
2023-06-11T14:11:19.268Z,31.35
2023-06-11T14:13:45.902Z,31.12
2023-06-11T14:16:12.844Z,30.78
2023-06-11T14:18:39.413Z,31.05
2023-06-11T14:21:07.216Z,31.28
2023-06-11T14:23:33.855Z,31.49
2023-06-11T14:26:00.620Z,31.68
2023-06-11T14:28:27.062Z,31.52
2023-06-11T14:30:53.949Z,31.47
2023-06-11T14:33:20.990Z,31.48
2023-06-11T14:35:47.814Z,31.35
2023-06-11T14:38:14.415Z,31.15
2023-06-11T14:40:41.557Z,30.91
2023-06-11T14:43:08.131Z,31.09
2023-06-11T14:45:34.614Z,31.28
2023-06-11T14:48:01.240Z,31.46
2023-06-11T14:50:27.827Z,31.60
2023-06-11T14:52:54.371Z,31.66
2023-06-11T14:55:20.958Z,31.76
2023-06-11T14:57:47.527Z,31.75
2023-06-11T15:00:14.944Z,31.75
2023-06-11T15:02:41.857Z,31.62
2023-06-11T15:05:08.692Z,31.67
2023-06-11T15:07:36.125Z,31.73
2023-06-11T15:10:05.004Z,31.73
2023-06-11T15:12:32.061Z,31.79
2023-06-11T15:15:01.243Z,31.69
2023-06-11T15:17:31.086Z,31.58
2023-06-11T15:19:59.761Z,31.57
2023-06-11T15:22:26.549Z,31.68
2023-06-11T15:24:53.017Z,31.73
2023-06-11T15:27:19.445Z,31.63
2023-06-11T15:29:46.179Z,31.63
2023-06-11T15:32:14.539Z,31.62
2023-06-11T15:34:42.506Z,31.48
2023-06-11T15:37:08.940Z,31.41
2023-06-11T15:39:35.346Z,31.42
2023-06-11T15:42:02.078Z,31.48
2023-06-11T15:44:28.623Z,31.51
2023-06-11T15:46:55.138Z,31.49
2023-06-11T15:49:21.695Z,31.42
2023-06-11T15:51:49.178Z,31.41
2023-06-11T15:54:16.363Z,31.37
2023-06-11T15:56:47.469Z,31.41
2023-06-11T15:59:14.860Z,31.33
2023-06-11T16:01:42.062Z,31.27
2023-06-11T16:04:08.723Z,31.37
2023-06-11T16:06:35.419Z,31.51
2023-06-11T16:09:01.960Z,31.51
2023-06-11T16:11:28.435Z,31.62
2023-06-11T16:13:55.468Z,31.83
2023-06-11T16:16:22.046Z,32.16
2023-06-11T16:18:48.506Z,32.45
2023-06-11T16:21:14.909Z,33.05
2023-06-11T16:23:42.185Z,33.46
2023-06-11T16:26:08.878Z,33.83
2023-06-11T16:28:35.584Z,34.15
2023-06-11T16:31:02.083Z,34.48
2023-06-11T16:33:40.532Z,34.84
2023-06-11T16:36:16.839Z,35.05
2023-06-11T16:38:43.309Z,35.44
2023-06-11T16:41:09.737Z,35.83
2023-06-11T16:43:36.364Z,36.01
2023-06-11T16:46:03.014Z,35.83
2023-06-11T16:48:29.647Z,35.61
2023-06-11T16:50:56.169Z,35.88
2023-06-11T16:53:22.700Z,36.34
2023-06-11T16:55:49.186Z,36.78
2023-06-11T16:58:15.941Z,37.18
2023-06-11T17:00:42.486Z,37.37
2023-06-11T17:03:09.198Z,37.14
2023-06-11T17:05:35.757Z,37.32
2023-06-11T17:08:03.083Z,37.30
2023-06-11T17:10:30.507Z,37.34
2023-06-11T17:12:57.470Z,37.63
2023-06-11T17:15:25.269Z,38.00
2023-06-11T17:17:51.844Z,38.25
2023-06-11T17:20:20.412Z,38.12
2023-06-11T17:22:48.306Z,38.24
2023-06-11T17:25:15.914Z,38.02
2023-06-11T17:27:42.657Z,37.42
2023-06-11T17:30:09.462Z,36.29
2023-06-11T17:32:36.694Z,35.28
2023-06-11T17:35:04.226Z,34.97
2023-06-11T17:37:31.397Z,35.04
2023-06-11T17:39:59.340Z,35.41
2023-06-11T17:42:25.934Z,35.70
2023-06-11T17:44:52.709Z,35.89
2023-06-11T17:47:19.351Z,35.98
2023-06-11T17:49:49.418Z,35.39
2023-06-11T17:52:16.921Z,33.54
2023-06-11T17:54:43.606Z,32.04
2023-06-11T17:57:10.088Z,31.04
2023-06-11T17:59:36.598Z,30.41
2023-06-11T18:02:03.338Z,29.96
2023-06-11T18:04:29.986Z,29.63
2023-06-11T18:06:56.497Z,29.34
2023-06-11T18:09:22.967Z,29.05
2023-06-11T18:11:49.448Z,28.86
2023-06-11T18:14:15.971Z,28.72
2023-06-11T18:16:42.434Z,28.59
2023-06-11T18:19:09.028Z,28.46
2023-06-11T18:21:35.547Z,28.37
2023-06-11T18:24:02.139Z,28.28
2023-06-11T18:26:28.843Z,28.18
2023-06-11T18:28:55.976Z,28.12
2023-06-11T18:31:24.800Z,28.02
2023-06-11T18:33:51.436Z,27.92
2023-06-11T18:36:18.315Z,27.83
2023-06-11T18:38:45.065Z,27.73
2023-06-11T18:41:11.808Z,27.65
2023-06-11T18:43:38.294Z,27.57
2023-06-11T18:46:04.867Z,27.49
2023-06-11T18:48:31.545Z,27.39
2023-06-11T18:50:57.976Z,27.32
2023-06-11T18:53:24.825Z,27.26
2023-06-11T18:55:51.293Z,27.18
2023-06-11T18:58:18.410Z,27.13
2023-06-11T19:00:45.468Z,27.05
2023-06-11T19:03:12.293Z,26.92
2023-06-11T19:05:39.594Z,26.83
2023-06-11T19:08:07.280Z,26.77
2023-06-11T19:10:35.332Z,26.71
2023-06-11T19:13:03.328Z,26.65
2023-06-11T19:15:29.823Z,26.54
2023-06-11T19:17:56.415Z,26.46
2023-06-11T19:20:22.979Z,26.43
2023-06-11T19:22:51.376Z,26.36
2023-06-11T19:25:17.933Z,26.27
2023-06-11T19:27:44.486Z,26.21
2023-06-11T19:30:11.608Z,26.16
2023-06-11T19:32:38.378Z,26.13
2023-06-11T19:35:05.361Z,26.10
2023-06-11T19:37:32.068Z,26.04
2023-06-11T19:39:59.447Z,25.99
2023-06-11T19:42:27.402Z,25.91
2023-06-11T19:44:53.784Z,25.86
2023-06-11T19:47:20.465Z,25.82
2023-06-11T19:49:47.393Z,25.76
2023-06-11T19:52:13.867Z,25.69
2023-06-11T19:54:51.254Z,25.61
2023-06-11T19:57:19.685Z,25.54
2023-06-11T19:59:46.415Z,25.46
2023-06-11T20:02:12.852Z,25.43
2023-06-11T20:04:39.572Z,25.41
2023-06-11T20:07:08.017Z,25.35
2023-06-11T20:09:35.911Z,25.31
2023-06-11T20:12:08.353Z,25.29
2023-06-11T20:14:36.606Z,25.22
2023-06-11T20:17:03.868Z,25.18
2023-06-11T20:19:30.354Z,25.12
2023-06-11T20:21:57.488Z,25.03
2023-06-11T20:24:26.914Z,24.97
2023-06-11T20:26:54.775Z,24.94
2023-06-11T20:29:22.879Z,24.86
2023-06-11T20:31:49.967Z,24.80
2023-06-11T20:34:17.187Z,24.76
2023-06-11T20:36:43.926Z,24.69
2023-06-11T20:39:10.474Z,24.59
2023-06-11T20:41:36.942Z,24.52
2023-06-11T20:44:03.462Z,24.47
2023-06-11T20:46:30.894Z,24.44
2023-06-11T20:48:57.764Z,24.39
2023-06-11T20:51:24.422Z,24.36
2023-06-11T20:53:51.008Z,24.29
2023-06-11T20:56:19.981Z,24.26
2023-06-11T20:58:46.763Z,24.21
2023-06-11T21:01:15.012Z,24.17
2023-06-11T21:03:41.595Z,24.11
2023-06-11T21:06:08.354Z,24.04
2023-06-11T21:08:34.908Z,23.98
2023-06-11T21:11:01.579Z,23.90
2023-06-11T21:13:28.270Z,23.85
2023-06-11T21:15:54.730Z,23.78
2023-06-11T21:18:21.366Z,23.73
2023-06-11T21:20:47.916Z,23.66
2023-06-11T21:23:14.494Z,23.58
2023-06-11T21:25:41.064Z,23.54
2023-06-11T21:28:07.534Z,23.46
2023-06-11T21:30:34.952Z,23.39
2023-06-11T21:33:01.481Z,23.30
2023-06-11T21:35:27.990Z,23.23
2023-06-11T21:37:54.427Z,23.13
2023-06-11T21:40:21.035Z,23.09
2023-06-11T21:42:47.557Z,23.08
2023-06-11T21:45:14.120Z,23.06
2023-06-11T21:50:07.818Z,22.97
2023-06-11T21:52:38.261Z,22.93
2023-06-11T21:55:07.141Z,22.91
2023-06-11T21:57:34.006Z,22.89
2023-06-11T22:00:05.292Z,22.85
2023-06-11T22:02:31.775Z,22.81
2023-06-11T22:04:58.520Z,22.76
2023-06-11T22:07:25.035Z,22.70
2023-06-11T22:09:51.508Z,22.65
2023-06-11T22:12:20.434Z,22.61
2023-06-11T22:14:46.967Z,22.58
2023-06-11T22:17:14.927Z,22.52
2023-06-11T22:19:41.915Z,22.47
2023-06-11T22:22:11.792Z,22.46
2023-06-11T22:24:38.896Z,22.44
2023-06-11T22:27:08.600Z,22.39
2023-06-11T22:29:35.631Z,22.34
2023-06-11T22:32:02.209Z,22.26
2023-06-11T22:34:28.750Z,22.24
2023-06-11T22:36:55.242Z,22.18
2023-06-11T22:39:21.755Z,22.14
2023-06-11T22:41:48.240Z,22.12
2023-06-11T22:44:14.780Z,22.08
2023-06-11T22:46:41.326Z,22.01
2023-06-11T22:49:08.854Z,21.95
2023-06-11T22:51:37.563Z,21.91
2023-06-11T22:54:06.488Z,21.88
2023-06-11T22:56:32.995Z,21.87
2023-06-11T22:58:59.461Z,21.85
2023-06-11T23:01:26.233Z,21.78
2023-06-11T23:03:52.969Z,21.75
2023-06-11T23:06:19.654Z,21.70
2023-06-11T23:08:46.097Z,21.66
2023-06-11T23:11:12.550Z,21.63
2023-06-11T23:13:39.081Z,21.60
2023-06-11T23:16:06.186Z,21.57
2023-06-11T23:18:32.956Z,21.53
2023-06-11T23:20:59.509Z,21.53
2023-06-11T23:23:26.378Z,21.49
2023-06-11T23:25:53.763Z,21.48
2023-06-11T23:28:23.403Z,21.45
2023-06-11T23:30:51.642Z,21.40
2023-06-11T23:33:18.290Z,21.36
2023-06-11T23:35:44.757Z,21.34
2023-06-11T23:38:11.335Z,21.32
2023-06-11T23:40:37.997Z,21.29
2023-06-11T23:43:04.440Z,21.25
2023-06-11T23:45:31.110Z,21.21
2023-06-11T23:47:57.709Z,21.20
2023-06-11T23:50:24.326Z,21.18
2023-06-11T23:52:51.765Z,21.16
2023-06-11T23:55:19.261Z,21.11
2023-06-11T23:58:06.249Z,21.01
